sensor_id;sensor_type;location;lat;lon;timestamp;P1;durP1;ratioP1;P2;durP2;ratioP2
14892;SDS011;7538;53.626;9.906;2023-04-24T00:01:57;8.98;;;8.15;;
14892;SDS011;7538;53.626;9.906;2023-04-24T00:04:24;10.23;;;8.85;;
14892;SDS011;7538;53.626;9.906;2023-04-24T00:06:53;10.48;;;8.88;;
14892;SDS011;7538;53.626;9.906;2023-04-24T00:09:22;11.32;;;10.10;;
14892;SDS011;7538;53.626;9.906;2023-04-24T00:11:49;12.38;;;10.23;;
14892;SDS011;7538;53.626;9.906;2023-04-24T00:14:16;10.18;;;9.13;;
14892;SDS011;7538;53.626;9.906;2023-04-24T00:16:42;10.75;;;9.15;;
14892;SDS011;7538;53.626;9.906;2023-04-24T00:19:09;9.18;;;8.27;;
14892;SDS011;7538;53.626;9.906;2023-04-24T00:21:37;10.23;;;9.13;;
14892;SDS011;7538;53.626;9.906;2023-04-24T00:24:06;12.02;;;9.70;;
14892;SDS011;7538;53.626;9.906;2023-04-24T00:26:34;10.73;;;9.70;;
14892;SDS011;7538;53.626;9.906;2023-04-24T00:29:00;11.80;;;10.38;;
14892;SDS011;7538;53.626;9.906;2023-04-24T00:31:27;12.68;;;9.95;;
14892;SDS011;7538;53.626;9.906;2023-04-24T00:33:54;10.43;;;9.40;;
14892;SDS011;7538;53.626;9.906;2023-04-24T00:36:21;9.25;;;8.35;;
14892;SDS011;7538;53.626;9.906;2023-04-24T00:38:48;9.77;;;8.70;;
14892;SDS011;7538;53.626;9.906;2023-04-24T00:41:16;12.30;;;9.57;;
14892;SDS011;7538;53.626;9.906;2023-04-24T00:43:43;10.65;;;9.65;;
14892;SDS011;7538;53.626;9.906;2023-04-24T00:46:10;11.00;;;9.98;;
14892;SDS011;7538;53.626;9.906;2023-04-24T00:48:38;11.38;;;10.18;;
14892;SDS011;7538;53.626;9.906;2023-04-24T00:51:05;10.95;;;9.80;;
14892;SDS011;7538;53.626;9.906;2023-04-24T00:53:32;11.02;;;9.95;;
14892;SDS011;7538;53.626;9.906;2023-04-24T00:55:59;11.13;;;9.98;;
14892;SDS011;7538;53.626;9.906;2023-04-24T00:58:28;10.88;;;9.80;;
14892;SDS011;7538;53.626;9.906;2023-04-24T01:00:56;10.68;;;9.52;;
14892;SDS011;7538;53.626;9.906;2023-04-24T01:03:24;10.77;;;9.20;;
14892;SDS011;7538;53.626;9.906;2023-04-24T01:05:53;10.02;;;9.02;;
14892;SDS011;7538;53.626;9.906;2023-04-24T01:08:21;9.70;;;8.75;;
14892;SDS011;7538;53.626;9.906;2023-04-24T01:10:50;9.57;;;8.65;;
14892;SDS011;7538;53.626;9.906;2023-04-24T01:13:18;9.13;;;8.23;;
14892;SDS011;7538;53.626;9.906;2023-04-24T01:15:47;10.20;;;9.20;;
14892;SDS011;7538;53.626;9.906;2023-04-24T01:18:14;8.65;;;7.75;;
14892;SDS011;7538;53.626;9.906;2023-04-24T01:20:42;9.70;;;8.70;;
14892;SDS011;7538;53.626;9.906;2023-04-24T01:23:13;8.95;;;8.05;;
14892;SDS011;7538;53.626;9.906;2023-04-24T01:25:40;8.63;;;7.75;;
14892;SDS011;7538;53.626;9.906;2023-04-24T01:28:07;8.68;;;7.75;;
14892;SDS011;7538;53.626;9.906;2023-04-24T01:30:34;8.52;;;7.70;;
14892;SDS011;7538;53.626;9.906;2023-04-24T01:33:01;8.43;;;7.63;;
14892;SDS011;7538;53.626;9.906;2023-04-24T01:35:28;7.82;;;7.03;;
14892;SDS011;7538;53.626;9.906;2023-04-24T01:37:55;8.18;;;7.38;;
14892;SDS011;7538;53.626;9.906;2023-04-24T01:40:24;7.28;;;6.57;;
14892;SDS011;7538;53.626;9.906;2023-04-24T01:42:50;9.38;;;7.35;;
14892;SDS011;7538;53.626;9.906;2023-04-24T01:45:18;7.28;;;6.57;;
14892;SDS011;7538;53.626;9.906;2023-04-24T01:47:45;6.20;;;5.60;;
14892;SDS011;7538;53.626;9.906;2023-04-24T01:50:12;6.10;;;5.50;;
14892;SDS011;7538;53.626;9.906;2023-04-24T01:52:39;6.18;;;5.57;;
14892;SDS011;7538;53.626;9.906;2023-04-24T01:55:06;5.50;;;5.05;;
14892;SDS011;7538;53.626;9.906;2023-04-24T01:57:35;4.88;;;4.43;;
14892;SDS011;7538;53.626;9.906;2023-04-24T02:00:02;5.68;;;5.18;;
14892;SDS011;7538;53.626;9.906;2023-04-24T02:02:30;5.28;;;4.55;;
14892;SDS011;7538;53.626;9.906;2023-04-24T02:04:57;7.28;;;4.38;;
14892;SDS011;7538;53.626;9.906;2023-04-24T02:07:24;6.30;;;3.88;;
14892;SDS011;7538;53.626;9.906;2023-04-24T02:09:51;4.25;;;3.38;;
14892;SDS011;7538;53.626;9.906;2023-04-24T02:12:18;4.47;;;3.65;;
14892;SDS011;7538;53.626;9.906;2023-04-24T02:14:46;4.70;;;3.20;;
14892;SDS011;7538;53.626;9.906;2023-04-24T02:17:13;4.95;;;3.45;;
14892;SDS011;7538;53.626;9.906;2023-04-24T02:19:41;3.47;;;3.17;;
14892;SDS011;7538;53.626;9.906;2023-04-24T02:22:07;4.13;;;3.33;;
14892;SDS011;7538;53.626;9.906;2023-04-24T02:24:35;3.42;;;3.13;;
14892;SDS011;7538;53.626;9.906;2023-04-24T02:27:02;3.75;;;3.03;;
14892;SDS011;7538;53.626;9.906;2023-04-24T02:29:30;3.55;;;3.25;;
14892;SDS011;7538;53.626;9.906;2023-04-24T02:31:58;3.20;;;2.90;;
14892;SDS011;7538;53.626;9.906;2023-04-24T02:34:25;3.10;;;2.80;;
14892;SDS011;7538;53.626;9.906;2023-04-24T02:36:52;3.00;;;2.80;;
14892;SDS011;7538;53.626;9.906;2023-04-24T02:39:19;3.00;;;2.80;;
14892;SDS011;7538;53.626;9.906;2023-04-24T02:41:46;3.35;;;3.03;;
14892;SDS011;7538;53.626;9.906;2023-04-24T02:44:13;2.92;;;2.60;;
14892;SDS011;7538;53.626;9.906;2023-04-24T02:46:40;2.60;;;2.40;;
14892;SDS011;7538;53.626;9.906;2023-04-24T02:49:08;3.00;;;2.70;;
14892;SDS011;7538;53.626;9.906;2023-04-24T02:51:36;2.67;;;2.47;;
14892;SDS011;7538;53.626;9.906;2023-04-24T02:54:06;2.92;;;2.72;;
14892;SDS011;7538;53.626;9.906;2023-04-24T02:56:34;2.60;;;2.40;;
14892;SDS011;7538;53.626;9.906;2023-04-24T02:59:01;2.42;;;2.22;;
14892;SDS011;7538;53.626;9.906;2023-04-24T03:01:28;3.20;;;2.80;;
14892;SDS011;7538;53.626;9.906;2023-04-24T03:03:55;2.70;;;2.47;;
14892;SDS011;7538;53.626;9.906;2023-04-24T03:06:24;2.35;;;2.10;;
14892;SDS011;7538;53.626;9.906;2023-04-24T03:08:52;3.15;;;2.85;;
14892;SDS011;7538;53.626;9.906;2023-04-24T03:11:18;4.13;;;3.15;;
14892;SDS011;7538;53.626;9.906;2023-04-24T03:13:45;3.40;;;3.10;;
14892;SDS011;7538;53.626;9.906;2023-04-24T03:16:12;3.30;;;3.00;;
14892;SDS011;7538;53.626;9.906;2023-04-24T03:18:39;3.30;;;3.00;;
14892;SDS011;7538;53.626;9.906;2023-04-24T03:21:06;3.22;;;2.72;;
14892;SDS011;7538;53.626;9.906;2023-04-24T03:23:34;3.35;;;2.90;;
14892;SDS011;7538;53.626;9.906;2023-04-24T03:26:01;4.03;;;2.83;;
14892;SDS011;7538;53.626;9.906;2023-04-24T03:28:27;3.15;;;2.67;;
14892;SDS011;7538;53.626;9.906;2023-04-24T03:30:54;2.97;;;2.67;;
14892;SDS011;7538;53.626;9.906;2023-04-24T03:33:21;3.42;;;3.10;;
14892;SDS011;7538;53.626;9.906;2023-04-24T03:35:48;3.28;;;2.70;;
14892;SDS011;7538;53.626;9.906;2023-04-24T03:38:15;4.63;;;2.50;;
14892;SDS011;7538;53.626;9.906;2023-04-24T03:40:43;3.33;;;3.05;;
14892;SDS011;7538;53.626;9.906;2023-04-24T03:43:10;2.97;;;2.58;;
14892;SDS011;7538;53.626;9.906;2023-04-24T03:45:37;3.03;;;2.83;;
14892;SDS011;7538;53.626;9.906;2023-04-24T03:48:04;3.88;;;2.60;;
14892;SDS011;7538;53.626;9.906;2023-04-24T03:50:30;3.00;;;2.80;;
14892;SDS011;7538;53.626;9.906;2023-04-24T03:52:57;3.17;;;2.40;;
14892;SDS011;7538;53.626;9.906;2023-04-24T03:55:24;2.58;;;2.38;;
14892;SDS011;7538;53.626;9.906;2023-04-24T03:57:52;3.25;;;2.95;;
14892;SDS011;7538;53.626;9.906;2023-04-24T04:00:19;3.50;;;2.85;;
14892;SDS011;7538;53.626;9.906;2023-04-24T04:02:46;3.80;;;2.67;;
14892;SDS011;7538;53.626;9.906;2023-04-24T04:05:13;2.97;;;2.78;;
14892;SDS011;7538;53.626;9.906;2023-04-24T04:07:40;2.92;;;2.70;;
14892;SDS011;7538;53.626;9.906;2023-04-24T04:10:07;3.03;;;2.83;;
14892;SDS011;7538;53.626;9.906;2023-04-24T04:12:34;3.40;;;2.78;;
14892;SDS011;7538;53.626;9.906;2023-04-24T04:15:02;2.90;;;2.70;;
14892;SDS011;7538;53.626;9.906;2023-04-24T04:17:31;2.97;;;2.78;;
14892;SDS011;7538;53.626;9.906;2023-04-24T04:19:57;2.55;;;2.35;;
14892;SDS011;7538;53.626;9.906;2023-04-24T04:22:25;4.40;;;2.60;;
14892;SDS011;7538;53.626;9.906;2023-04-24T04:24:51;2.97;;;2.58;;
14892;SDS011;7538;53.626;9.906;2023-04-24T04:27:18;3.10;;;2.90;;
14892;SDS011;7538;53.626;9.906;2023-04-24T04:29:46;3.30;;;2.53;;
14892;SDS011;7538;53.626;9.906;2023-04-24T04:32:14;2.50;;;2.30;;
14892;SDS011;7538;53.626;9.906;2023-04-24T04:34:42;3.10;;;2.83;;
14892;SDS011;7538;53.626;9.906;2023-04-24T04:37:10;2.60;;;2.40;;
14892;SDS011;7538;53.626;9.906;2023-04-24T04:39:37;3.17;;;2.42;;
14892;SDS011;7538;53.626;9.906;2023-04-24T04:42:04;3.05;;;2.53;;
14892;SDS011;7538;53.626;9.906;2023-04-24T04:44:31;2.97;;;2.05;;
14892;SDS011;7538;53.626;9.906;2023-04-24T04:47:00;2.78;;;2.50;;
14892;SDS011;7538;53.626;9.906;2023-04-24T04:49:31;3.03;;;2.00;;
14892;SDS011;7538;53.626;9.906;2023-04-24T04:51:59;2.45;;;2.22;;
14892;SDS011;7538;53.626;9.906;2023-04-24T04:54:25;2.40;;;2.20;;
14892;SDS011;7538;53.626;9.906;2023-04-24T04:56:52;2.92;;;1.95;;
14892;SDS011;7538;53.626;9.906;2023-04-24T04:59:19;2.20;;;2.00;;
14892;SDS011;7538;53.626;9.906;2023-04-24T05:01:46;2.72;;;1.98;;
14892;SDS011;7538;53.626;9.906;2023-04-24T05:04:13;2.63;;;2.00;;
14892;SDS011;7538;53.626;9.906;2023-04-24T05:06:41;1.90;;;1.80;;
14892;SDS011;7538;53.626;9.906;2023-04-24T05:09:08;2.65;;;1.95;;
14892;SDS011;7538;53.626;9.906;2023-04-24T05:11:35;2.35;;;2.13;;
14892;SDS011;7538;53.626;9.906;2023-04-24T05:14:02;1.73;;;1.60;;
14892;SDS011;7538;53.626;9.906;2023-04-24T05:16:29;3.95;;;1.83;;
14892;SDS011;7538;53.626;9.906;2023-04-24T05:18:56;2.20;;;1.80;;
14892;SDS011;7538;53.626;9.906;2023-04-24T05:21:23;2.45;;;1.88;;
14892;SDS011;7538;53.626;9.906;2023-04-24T05:23:51;2.13;;;1.92;;
14892;SDS011;7538;53.626;9.906;2023-04-24T05:26:18;1.85;;;1.75;;
14892;SDS011;7538;53.626;9.906;2023-04-24T05:28:45;1.95;;;1.75;;
14892;SDS011;7538;53.626;9.906;2023-04-24T05:31:12;1.73;;;1.60;;
14892;SDS011;7538;53.626;9.906;2023-04-24T05:33:40;3.55;;;1.50;;
14892;SDS011;7538;53.626;9.906;2023-04-24T05:36:07;1.88;;;1.60;;
14892;SDS011;7538;53.626;9.906;2023-04-24T05:38:34;2.70;;;1.25;;
14892;SDS011;7538;53.626;9.906;2023-04-24T05:41:02;2.25;;;1.50;;
14892;SDS011;7538;53.626;9.906;2023-04-24T05:43:29;1.17;;;1.05;;
14892;SDS011;7538;53.626;9.906;2023-04-24T05:45:56;1.80;;;1.20;;
14892;SDS011;7538;53.626;9.906;2023-04-24T05:48:23;1.23;;;1.13;;
14892;SDS011;7538;53.626;9.906;2023-04-24T05:50:49;1.75;;;1.60;;
14892;SDS011;7538;53.626;9.906;2023-04-24T05:53:17;3.13;;;1.20;;
14892;SDS011;7538;53.626;9.906;2023-04-24T05:55:44;1.45;;;1.10;;
14892;SDS011;7538;53.626;9.906;2023-04-24T05:58:13;2.00;;;1.38;;
14892;SDS011;7538;53.626;9.906;2023-04-24T06:00:40;1.20;;;1.10;;
14892;SDS011;7538;53.626;9.906;2023-04-24T06:03:08;1.98;;;1.13;;
14892;SDS011;7538;53.626;9.906;2023-04-24T06:05:35;3.42;;;1.20;;
14892;SDS011;7538;53.626;9.906;2023-04-24T06:08:02;2.38;;;1.17;;
14892;SDS011;7538;53.626;9.906;2023-04-24T06:10:28;4.35;;;1.50;;
14892;SDS011;7538;53.626;9.906;2023-04-24T06:12:55;2.38;;;1.40;;
14892;SDS011;7538;53.626;9.906;2023-04-24T06:15:27;3.50;;;1.35;;
14892;SDS011;7538;53.626;9.906;2023-04-24T06:17:55;3.30;;;1.30;;
14892;SDS011;7538;53.626;9.906;2023-04-24T06:20:22;0.90;;;0.90;;
14892;SDS011;7538;53.626;9.906;2023-04-24T06:22:49;1.50;;;1.38;;
14892;SDS011;7538;53.626;9.906;2023-04-24T06:25:16;1.30;;;1.20;;
14892;SDS011;7538;53.626;9.906;2023-04-24T06:27:43;1.50;;;1.25;;
14892;SDS011;7538;53.626;9.906;2023-04-24T06:30:10;1.30;;;1.05;;
14892;SDS011;7538;53.626;9.906;2023-04-24T06:32:39;1.60;;;1.10;;
14892;SDS011;7538;53.626;9.906;2023-04-24T06:35:06;1.95;;;1.20;;
14892;SDS011;7538;53.626;9.906;2023-04-24T06:37:34;1.52;;;1.00;;
14892;SDS011;7538;53.626;9.906;2023-04-24T06:40:01;1.30;;;1.20;;
14892;SDS011;7538;53.626;9.906;2023-04-24T06:42:28;1.80;;;1.40;;
14892;SDS011;7538;53.626;9.906;2023-04-24T06:44:55;1.58;;;1.10;;
14892;SDS011;7538;53.626;9.906;2023-04-24T06:47:22;1.42;;;1.10;;
14892;SDS011;7538;53.626;9.906;2023-04-24T06:49:50;1.10;;;1.00;;
14892;SDS011;7538;53.626;9.906;2023-04-24T06:52:17;3.60;;;1.50;;
14892;SDS011;7538;53.626;9.906;2023-04-24T06:54:44;1.33;;;1.23;;
14892;SDS011;7538;53.626;9.906;2023-04-24T06:57:11;1.58;;;1.33;;
14892;SDS011;7538;53.626;9.906;2023-04-24T06:59:38;1.48;;;1.38;;
14892;SDS011;7538;53.626;9.906;2023-04-24T07:02:05;1.50;;;1.40;;
14892;SDS011;7538;53.626;9.906;2023-04-24T07:04:32;1.58;;;1.48;;
14892;SDS011;7538;53.626;9.906;2023-04-24T07:07:00;1.75;;;1.58;;
14892;SDS011;7538;53.626;9.906;2023-04-24T07:09:28;1.80;;;1.70;;
14892;SDS011;7538;53.626;9.906;2023-04-24T07:11:55;1.75;;;1.65;;
14892;SDS011;7538;53.626;9.906;2023-04-24T07:14:22;2.35;;;1.60;;
14892;SDS011;7538;53.626;9.906;2023-04-24T07:16:49;2.42;;;1.70;;
14892;SDS011;7538;53.626;9.906;2023-04-24T07:19:16;2.22;;;2.00;;
14892;SDS011;7538;53.626;9.906;2023-04-24T07:21:42;1.70;;;1.60;;
14892;SDS011;7538;53.626;9.906;2023-04-24T07:24:11;1.85;;;1.75;;
14892;SDS011;7538;53.626;9.906;2023-04-24T07:26:38;2.20;;;2.00;;
14892;SDS011;7538;53.626;9.906;2023-04-24T07:29:05;3.03;;;2.35;;
14892;SDS011;7538;53.626;9.906;2023-04-24T07:31:32;2.35;;;2.15;;
14892;SDS011;7538;53.626;9.906;2023-04-24T07:33:59;1.98;;;1.83;;
14892;SDS011;7538;53.626;9.906;2023-04-24T07:36:26;2.53;;;1.92;;
14892;SDS011;7538;53.626;9.906;2023-04-24T07:38:53;2.58;;;2.38;;
14892;SDS011;7538;53.626;9.906;2023-04-24T07:41:22;2.33;;;2.13;;
14892;SDS011;7538;53.626;9.906;2023-04-24T07:43:50;2.55;;;2.25;;
14892;SDS011;7538;53.626;9.906;2023-04-24T07:46:17;2.33;;;2.05;;
14892;SDS011;7538;53.626;9.906;2023-04-24T07:48:44;2.53;;;2.15;;
14892;SDS011;7538;53.626;9.906;2023-04-24T07:51:13;2.80;;;2.53;;
14892;SDS011;7538;53.626;9.906;2023-04-24T07:53:40;2.72;;;2.53;;
14892;SDS011;7538;53.626;9.906;2023-04-24T07:56:07;2.35;;;2.15;;
14892;SDS011;7538;53.626;9.906;2023-04-24T07:58:35;3.22;;;3.03;;
14892;SDS011;7538;53.626;9.906;2023-04-24T08:01:02;3.25;;;2.92;;
14892;SDS011;7538;53.626;9.906;2023-04-24T08:03:28;3.50;;;3.20;;
14892;SDS011;7538;53.626;9.906;2023-04-24T08:05:55;3.90;;;3.60;;
14892;SDS011;7538;53.626;9.906;2023-04-24T08:08:22;4.68;;;3.25;;
14892;SDS011;7538;53.626;9.906;2023-04-24T08:10:49;3.50;;;3.20;;
14892;SDS011;7538;53.626;9.906;2023-04-24T08:13:16;3.05;;;2.80;;
14892;SDS011;7538;53.626;9.906;2023-04-24T08:15:44;3.45;;;3.25;;
14892;SDS011;7538;53.626;9.906;2023-04-24T08:18:11;3.42;;;3.22;;
14892;SDS011;7538;53.626;9.906;2023-04-24T08:20:38;3.95;;;3.65;;
14892;SDS011;7538;53.626;9.906;2023-04-24T08:23:05;3.80;;;3.50;;
14892;SDS011;7538;53.626;9.906;2023-04-24T08:25:32;3.72;;;3.42;;
14892;SDS011;7538;53.626;9.906;2023-04-24T08:28:00;4.38;;;3.00;;
14892;SDS011;7538;53.626;9.906;2023-04-24T08:30:29;3.50;;;3.20;;
14892;SDS011;7538;53.626;9.906;2023-04-24T08:32:57;3.58;;;3.28;;
14892;SDS011;7538;53.626;9.906;2023-04-24T08:35:24;3.85;;;3.53;;
14892;SDS011;7538;53.626;9.906;2023-04-24T08:37:51;4.00;;;3.70;;
14892;SDS011;7538;53.626;9.906;2023-04-24T08:40:20;4.20;;;3.90;;
14892;SDS011;7538;53.626;9.906;2023-04-24T08:42:53;4.53;;;3.70;;
14892;SDS011;7538;53.626;9.906;2023-04-24T08:45:20;4.45;;;4.03;;
14892;SDS011;7538;53.626;9.906;2023-04-24T08:47:47;5.18;;;4.68;;
14892;SDS011;7538;53.626;9.906;2023-04-24T08:50:16;4.82;;;4.43;;
14892;SDS011;7538;53.626;9.906;2023-04-24T08:52:43;4.45;;;4.00;;
14892;SDS011;7538;53.626;9.906;2023-04-24T08:55:10;5.10;;;4.60;;
14892;SDS011;7538;53.626;9.906;2023-04-24T08:57:37;5.10;;;4.70;;
14892;SDS011;7538;53.626;9.906;2023-04-24T09:00:07;5.70;;;5.20;;
14892;SDS011;7538;53.626;9.906;2023-04-24T09:02:34;5.68;;;5.18;;
14892;SDS011;7538;53.626;9.906;2023-04-24T09:05:01;5.00;;;4.50;;
14892;SDS011;7538;53.626;9.906;2023-04-24T09:07:31;6.03;;;4.95;;
14892;SDS011;7538;53.626;9.906;2023-04-24T09:10:02;6.20;;;5.60;;
14892;SDS011;7538;53.626;9.906;2023-04-24T09:12:29;5.70;;;5.20;;
14892;SDS011;7538;53.626;9.906;2023-04-24T09:14:56;6.85;;;5.80;;
14892;SDS011;7538;53.626;9.906;2023-04-24T09:17:24;6.35;;;5.82;;
14892;SDS011;7538;53.626;9.906;2023-04-24T09:19:53;6.82;;;6.10;;
14892;SDS011;7538;53.626;9.906;2023-04-24T09:22:20;6.90;;;6.20;;
14892;SDS011;7538;53.626;9.906;2023-04-24T09:24:49;6.13;;;5.63;;
14892;SDS011;7538;53.626;9.906;2023-04-24T09:27:28;7.53;;;5.72;;
14892;SDS011;7538;53.626;9.906;2023-04-24T09:29:54;6.70;;;6.05;;
14892;SDS011;7538;53.626;9.906;2023-04-24T09:32:22;6.63;;;6.03;;
14892;SDS011;7538;53.626;9.906;2023-04-24T09:35:04;7.72;;;5.80;;
14892;SDS011;7538;53.626;9.906;2023-04-24T09:37:34;6.55;;;5.95;;
14892;SDS011;7538;53.626;9.906;2023-04-24T09:40:13;6.43;;;5.93;;
14892;SDS011;7538;53.626;9.906;2023-04-24T09:42:45;7.90;;;4.90;;
14892;SDS011;7538;53.626;9.906;2023-04-24T09:45:12;7.05;;;6.35;;
14892;SDS011;7538;53.626;9.906;2023-04-24T09:47:40;4.88;;;4.35;;
14892;SDS011;7538;53.626;9.906;2023-04-24T09:50:11;5.13;;;4.72;;
14892;SDS011;7538;53.626;9.906;2023-04-24T09:52:40;5.63;;;5.03;;
14892;SDS011;7538;53.626;9.906;2023-04-24T09:55:13;5.70;;;5.18;;
14892;SDS011;7538;53.626;9.906;2023-04-24T09:57:49;6.38;;;5.15;;
14892;SDS011;7538;53.626;9.906;2023-04-24T10:00:18;5.82;;;5.32;;
14892;SDS011;7538;53.626;9.906;2023-04-24T10:02:49;6.10;;;5.50;;
14892;SDS011;7538;53.626;9.906;2023-04-24T10:05:17;6.38;;;5.78;;
14892;SDS011;7538;53.626;9.906;2023-04-24T10:07:44;6.20;;;5.70;;
14892;SDS011;7538;53.626;9.906;2023-04-24T10:10:11;6.38;;;5.75;;
14892;SDS011;7538;53.626;9.906;2023-04-24T10:12:40;6.57;;;5.97;;
14892;SDS011;7538;53.626;9.906;2023-04-24T10:15:09;6.65;;;6.05;;
14892;SDS011;7538;53.626;9.906;2023-04-24T10:17:39;8.50;;;7.60;;
14892;SDS011;7538;53.626;9.906;2023-04-24T10:20:06;8.02;;;7.25;;
14892;SDS011;7538;53.626;9.906;2023-04-24T10:22:34;8.32;;;6.93;;
14892;SDS011;7538;53.626;9.906;2023-04-24T10:25:03;8.20;;;7.50;;
14892;SDS011;7538;53.626;9.906;2023-04-24T10:27:33;9.35;;;7.93;;
14892;SDS011;7538;53.626;9.906;2023-04-24T10:30:02;7.57;;;6.88;;
14892;SDS011;7538;53.626;9.906;2023-04-24T10:32:29;8.98;;;8.13;;
14892;SDS011;7538;53.626;9.906;2023-04-24T10:34:56;9.60;;;8.60;;
14892;SDS011;7538;53.626;9.906;2023-04-24T10:37:23;9.65;;;8.63;;
14892;SDS011;7538;53.626;9.906;2023-04-24T10:39:51;8.75;;;7.93;;
14892;SDS011;7538;53.626;9.906;2023-04-24T10:42:19;8.93;;;8.02;;
14892;SDS011;7538;53.626;9.906;2023-04-24T10:44:48;9.90;;;8.90;;
14892;SDS011;7538;53.626;9.906;2023-04-24T10:47:15;10.27;;;9.05;;
14892;SDS011;7538;53.626;9.906;2023-04-24T10:49:42;9.48;;;8.57;;
14892;SDS011;7538;53.626;9.906;2023-04-24T10:52:09;11.38;;;9.07;;
14892;SDS011;7538;53.626;9.906;2023-04-24T10:54:40;9.65;;;8.73;;
14892;SDS011;7538;53.626;9.906;2023-04-24T10:57:27;10.05;;;8.20;;
14892;SDS011;7538;53.626;9.906;2023-04-24T11:00:16;10.63;;;8.90;;
14892;SDS011;7538;53.626;9.906;2023-04-24T11:02:46;10.50;;;8.65;;
14892;SDS011;7538;53.626;9.906;2023-04-24T11:05:18;10.15;;;9.15;;
14892;SDS011;7538;53.626;9.906;2023-04-24T11:10:38;10.05;;;9.05;;
14892;SDS011;7538;53.626;9.906;2023-04-24T11:13:06;10.70;;;9.45;;
14892;SDS011;7538;53.626;9.906;2023-04-24T11:15:35;10.02;;;9.02;;
14892;SDS011;7538;53.626;9.906;2023-04-24T11:18:02;10.45;;;9.27;;
14892;SDS011;7538;53.626;9.906;2023-04-24T11:20:29;11.60;;;9.77;;
14892;SDS011;7538;53.626;9.906;2023-04-24T11:22:57;10.27;;;9.27;;
14892;SDS011;7538;53.626;9.906;2023-04-24T11:25:30;11.40;;;9.68;;
14892;SDS011;7538;53.626;9.906;2023-04-24T11:28:02;10.63;;;9.52;;
14892;SDS011;7538;53.626;9.906;2023-04-24T11:30:30;12.25;;;9.00;;
14892;SDS011;7538;53.626;9.906;2023-04-24T11:33:02;9.88;;;8.88;;
14892;SDS011;7538;53.626;9.906;2023-04-24T11:35:30;10.20;;;9.15;;
14892;SDS011;7538;53.626;9.906;2023-04-24T11:38:02;9.90;;;8.85;;
14892;SDS011;7538;53.626;9.906;2023-04-24T11:40:30;11.65;;;8.65;;
14892;SDS011;7538;53.626;9.906;2023-04-24T11:42:59;8.70;;;7.85;;
14892;SDS011;7538;53.626;9.906;2023-04-24T11:45:27;9.60;;;8.45;;
14892;SDS011;7538;53.626;9.906;2023-04-24T11:47:56;9.38;;;8.45;;
14892;SDS011;7538;53.626;9.906;2023-04-24T11:50:25;10.10;;;9.07;;
14892;SDS011;7538;53.626;9.906;2023-04-24T11:52:54;8.57;;;7.78;;
14892;SDS011;7538;53.626;9.906;2023-04-24T11:55:25;9.13;;;8.02;;
14892;SDS011;7538;53.626;9.906;2023-04-24T11:57:54;10.20;;;9.25;;
14892;SDS011;7538;53.626;9.906;2023-04-24T12:00:23;9.00;;;8.10;;
14892;SDS011;7538;53.626;9.906;2023-04-24T12:02:51;9.35;;;8.45;;
14892;SDS011;7538;53.626;9.906;2023-04-24T12:05:21;7.68;;;6.88;;
14892;SDS011;7538;53.626;9.906;2023-04-24T12:07:49;7.32;;;6.63;;
14892;SDS011;7538;53.626;9.906;2023-04-24T12:10:19;7.97;;;6.97;;
14892;SDS011;7538;53.626;9.906;2023-04-24T12:12:46;8.40;;;6.63;;
14892;SDS011;7538;53.626;9.906;2023-04-24T12:15:15;7.35;;;6.65;;
14892;SDS011;7538;53.626;9.906;2023-04-24T12:17:43;8.00;;;6.53;;
14892;SDS011;7538;53.626;9.906;2023-04-24T12:20:11;7.20;;;6.60;;
14892;SDS011;7538;53.626;9.906;2023-04-24T12:22:45;7.15;;;6.45;;
14892;SDS011;7538;53.626;9.906;2023-04-24T12:25:14;7.28;;;6.57;;
14892;SDS011;7538;53.626;9.906;2023-04-24T12:27:42;6.75;;;6.10;;
14892;SDS011;7538;53.626;9.906;2023-04-24T12:30:10;7.78;;;7.07;;
14892;SDS011;7538;53.626;9.906;2023-04-24T12:32:42;7.10;;;6.10;;
14892;SDS011;7538;53.626;9.906;2023-04-24T12:35:09;7.40;;;6.70;;
14892;SDS011;7538;53.626;9.906;2023-04-24T12:37:36;7.43;;;6.65;;
14892;SDS011;7538;53.626;9.906;2023-04-24T12:40:05;8.35;;;7.45;;
14892;SDS011;7538;53.626;9.906;2023-04-24T12:42:35;7.40;;;6.70;;
14892;SDS011;7538;53.626;9.906;2023-04-24T12:45:08;8.45;;;7.65;;
14892;SDS011;7538;53.626;9.906;2023-04-24T12:47:37;8.55;;;7.75;;
14892;SDS011;7538;53.626;9.906;2023-04-24T12:50:05;8.93;;;7.65;;
14892;SDS011;7538;53.626;9.906;2023-04-24T12:52:32;8.15;;;7.45;;
14892;SDS011;7538;53.626;9.906;2023-04-24T12:54:59;8.35;;;7.35;;
14892;SDS011;7538;53.626;9.906;2023-04-24T12:57:27;7.72;;;7.03;;
14892;SDS011;7538;53.626;9.906;2023-04-24T12:59:57;9.02;;;6.80;;
14892;SDS011;7538;53.626;9.906;2023-04-24T13:02:25;6.68;;;6.00;;
14892;SDS011;7538;53.626;9.906;2023-04-24T13:04:55;6.88;;;6.10;;
14892;SDS011;7538;53.626;9.906;2023-04-24T13:07:22;5.90;;;5.40;;
14892;SDS011;7538;53.626;9.906;2023-04-24T13:09:49;5.68;;;5.18;;
14892;SDS011;7538;53.626;9.906;2023-04-24T13:12:17;6.50;;;6.00;;
14892;SDS011;7538;53.626;9.906;2023-04-24T13:14:44;6.47;;;5.80;;
14892;SDS011;7538;53.626;9.906;2023-04-24T13:17:13;6.38;;;5.78;;
14892;SDS011;7538;53.626;9.906;2023-04-24T13:19:40;6.05;;;5.38;;
14892;SDS011;7538;53.626;9.906;2023-04-24T13:22:09;7.55;;;5.65;;
14892;SDS011;7538;53.626;9.906;2023-04-24T13:24:36;5.88;;;5.28;;
14892;SDS011;7538;53.626;9.906;2023-04-24T13:27:04;5.70;;;5.18;;
14892;SDS011;7538;53.626;9.906;2023-04-24T13:29:31;5.75;;;5.25;;
14892;SDS011;7538;53.626;9.906;2023-04-24T13:31:58;6.05;;;5.10;;
14892;SDS011;7538;53.626;9.906;2023-04-24T13:34:27;5.75;;;5.25;;
14892;SDS011;7538;53.626;9.906;2023-04-24T13:36:55;5.70;;;5.20;;
14892;SDS011;7538;53.626;9.906;2023-04-24T13:39:23;5.72;;;5.22;;
14892;SDS011;7538;53.626;9.906;2023-04-24T13:41:51;6.35;;;5.75;;
14892;SDS011;7538;53.626;9.906;2023-04-24T13:44:19;6.25;;;5.63;;
14892;SDS011;7538;53.626;9.906;2023-04-24T13:46:47;6.80;;;6.10;;
14892;SDS011;7538;53.626;9.906;2023-04-24T13:49:15;6.35;;;5.75;;
14892;SDS011;7538;53.626;9.906;2023-04-24T13:51:44;6.07;;;5.57;;
14892;SDS011;7538;53.626;9.906;2023-04-24T13:54:11;6.07;;;5.50;;
14892;SDS011;7538;53.626;9.906;2023-04-24T13:56:38;6.55;;;5.85;;
14892;SDS011;7538;53.626;9.906;2023-04-24T13:59:05;8.18;;;6.45;;
14892;SDS011;7538;53.626;9.906;2023-04-24T14:01:32;6.13;;;5.63;;
14892;SDS011;7538;53.626;9.906;2023-04-24T14:03:59;7.35;;;6.55;;
14892;SDS011;7538;53.626;9.906;2023-04-24T14:06:26;6.97;;;6.28;;
14892;SDS011;7538;53.626;9.906;2023-04-24T14:08:54;6.15;;;5.65;;
14892;SDS011;7538;53.626;9.906;2023-04-24T14:11:21;5.93;;;5.43;;
14892;SDS011;7538;53.626;9.906;2023-04-24T14:13:48;6.03;;;5.53;;
14892;SDS011;7538;53.626;9.906;2023-04-24T14:16:15;6.07;;;5.05;;
14892;SDS011;7538;53.626;9.906;2023-04-24T14:18:42;6.10;;;5.55;;
14892;SDS011;7538;53.626;9.906;2023-04-24T14:21:09;6.03;;;5.43;;
14892;SDS011;7538;53.626;9.906;2023-04-24T14:23:36;7.72;;;7.00;;
14892;SDS011;7538;53.626;9.906;2023-04-24T14:26:04;9.00;;;8.13;;
14892;SDS011;7538;53.626;9.906;2023-04-24T14:28:32;8.95;;;8.15;;
14892;SDS011;7538;53.626;9.906;2023-04-24T14:30:58;9.70;;;8.70;;
14892;SDS011;7538;53.626;9.906;2023-04-24T14:33:26;11.02;;;9.95;;
14892;SDS011;7538;53.626;9.906;2023-04-24T14:35:52;10.07;;;9.13;;
14892;SDS011;7538;53.626;9.906;2023-04-24T14:38:19;11.85;;;10.65;;
14892;SDS011;7538;53.626;9.906;2023-04-24T14:40:46;11.95;;;10.75;;
14892;SDS011;7538;53.626;9.906;2023-04-24T14:43:14;11.15;;;10.10;;
14892;SDS011;7538;53.626;9.906;2023-04-24T14:45:41;12.55;;;11.25;;
14892;SDS011;7538;53.626;9.906;2023-04-24T14:48:08;12.27;;;11.07;;
14892;SDS011;7538;53.626;9.906;2023-04-24T14:50:36;12.73;;;11.43;;
14892;SDS011;7538;53.626;9.906;2023-04-24T14:53:03;13.20;;;12.00;;
14892;SDS011;7538;53.626;9.906;2023-04-24T14:55:30;12.98;;;11.68;;
14892;SDS011;7538;53.626;9.906;2023-04-24T14:57:58;12.25;;;11.05;;
14892;SDS011;7538;53.626;9.906;2023-04-24T15:00:26;12.02;;;10.52;;
14892;SDS011;7538;53.626;9.906;2023-04-24T15:02:53;11.75;;;10.65;;
14892;SDS011;7538;53.626;9.906;2023-04-24T15:05:20;11.38;;;10.27;;